Time;durP1;ratioP1;P1;durP2;ratioP2;P2;SDS_P1;SDS_P2;PMS_P1;PMS_P2;Temp;Humidity;BMP_temperature;BMP_pressure;BME280_temperature;BME280_humidity;BME280_pressure;Samples;Min_cycle;Max_cycle;Signal;HPM_P1;HPM_P2
2022/03/05 00:00:14;;;;;;;;;;;;;;;16.70;38.95;101438.81;4433779;32;19964;-71
2022/03/05 00:02:40;;;;;;;;;;;;;;;16.72;38.94;101449.72;4437220;32;19996;-71
2022/03/05 00:05:05;;;;;;;;;;;;;;;16.84;38.92;101454.53;4433744;32;19965;-71
2022/03/05 00:07:32;;;;;;;;;;;;;;;16.98;38.40;101449.06;4434174;32;19985;-71
2022/03/05 00:09:58;;;;;;;;;;;;;;;16.78;38.56;101454.31;4434510;32;19965;-71
2022/03/05 00:12:24;;;;;;;;;;;;;;;16.82;38.75;101454.19;4433182;32;19957;-71
2022/03/05 00:14:49;;;;;;;;;;;;;;;16.16;39.29;101460.25;4432647;32;20000;-71
2022/03/05 00:17:16;;;;;;;;;;;;;;;16.39;39.44;101459.84;4433472;32;20071;-71
2022/03/05 00:19:41;;;;;;;;;;;;;;;16.22;38.71;101459.22;4434207;32;19985;-71
2022/03/05 00:22:07;;;;;;;;;;;;;;;16.13;39.26;101458.38;4436341;32;20026;-71
2022/03/05 00:24:33;;;;;;;;;;;;;;;16.52;39.03;101458.56;4433920;32;19949;-71
2022/03/05 00:26:58;;;;;;;;;;;;;;;16.58;39.02;101459.56;4417644;32;19958;-71
2022/03/05 00:29:25;;;;;;;;;;;;;;;16.67;38.74;101464.50;4423869;32;20402;-71
2022/03/05 00:31:50;;;;;;;;;;;;;;;16.69;38.63;101467.69;4422449;32;19972;-71
2022/03/05 00:34:16;;;;;;;;;;;;;;;16.66;38.88;101463.69;4425940;32;19941;-71
2022/03/05 00:36:42;;;;;;;;;;;;;;;16.76;38.21;101468.22;4423998;32;19949;-71
2022/03/05 00:39:08;;;;;;;;;;;;;;;16.88;38.17;101469.38;4425451;32;19965;-71
2022/03/05 00:41:34;;;;;;;;;;;;;;;16.48;38.79;101462.78;4408730;32;20028;-71
2022/03/05 00:43:59;;;;;;;;;;;;;;;16.74;38.41;101475.59;4421870;32;20000;-71
2022/03/05 00:46:25;;;;;;;;;;;;;;;16.63;38.43;101469.53;4423971;32;20359;-71
2022/03/05 00:48:52;;;;;;;;;;;;;;;16.66;38.48;101471.47;4423991;32;20029;-71
2022/03/05 00:51:17;;;;;;;;;;;;;;;16.55;38.54;101477.53;4423783;32;20026;-71
2022/03/05 00:53:43;;;;;;;;;;;;;;;16.58;38.45;101467.28;4424473;32;20449;-71
2022/03/05 00:56:08;;;;;;;;;;;;;;;16.60;38.46;101468.38;4422536;32;19992;-71
2022/03/05 00:58:34;;;;;;;;;;;;;;;16.73;38.37;101477.66;4422488;32;20461;-71
2022/03/05 01:00:59;;;;;;;;;;;;;;;16.63;38.69;101472.38;4421979;32;20328;-71
2022/03/05 01:03:25;;;;;;;;;;;;;;;16.76;38.37;101484.47;4425220;32;19946;-71
2022/03/05 01:05:51;;;;;;;;;;;;;;;16.69;38.52;101471.31;4423339;32;20070;-71
2022/03/05 01:08:16;;;;;;;;;;;;;;;16.56;38.42;101472.62;4424144;32;20037;-71
2022/03/05 01:10:42;;;;;;;;;;;;;;;16.69;38.76;101482.66;4423534;32;19996;-71
2022/03/05 01:13:08;;;;;;;;;;;;;;;16.78;38.27;101477.06;4422870;32;19962;-71
2022/03/05 01:15:33;;;;;;;;;;;;;;;16.83;38.48;101485.00;4423379;32;20030;-71
2022/03/05 01:17:59;;;;;;;;;;;;;;;16.73;38.60;101496.75;4422697;32;19976;-71
2022/03/05 01:20:24;;;;;;;;;;;;;;;16.75;38.42;101491.41;4422452;32;19949;-71
2022/03/05 01:22:50;;;;;;;;;;;;;;;16.86;38.13;101486.09;4420813;32;19975;-71
2022/03/05 01:25:15;;;;;;;;;;;;;;;16.25;38.86;101492.38;4424568;32;19992;-71
2022/03/05 01:27:41;;;;;;;;;;;;;;;16.19;38.94;101496.25;4425993;32;20044;-71
2022/03/05 01:30:06;;;;;;;;;;;;;;;16.21;39.14;101502.28;4423821;32;20424;-71
2022/03/05 01:32:32;;;;;;;;;;;;;;;16.52;38.62;101491.84;4415339;32;20460;-71
2022/03/05 01:34:57;;;;;;;;;;;;;;;16.37;38.69;101494.41;4424051;32;20019;-71
2022/03/05 01:37:23;;;;;;;;;;;;;;;16.62;38.41;101490.66;4422608;32;20020;-71
2022/03/05 01:39:48;;;;;;;;;;;;;;;16.65;38.68;101496.22;4426291;32;19978;-71
2022/03/05 01:42:13;;;;;;;;;;;;;;;16.77;38.41;101491.72;4421772;32;20041;-71
2022/03/05 01:44:39;;;;;;;;;;;;;;;16.44;38.67;101490.53;4423729;32;19957;-71
2022/03/05 01:47:05;;;;;;;;;;;;;;;16.60;38.26;101496.81;4409765;32;19949;-71
2022/03/05 01:49:31;;;;;;;;;;;;;;;16.63;38.05;101492.28;4422530;32;20033;-71
2022/03/05 01:51:58;;;;;;;;;;;;;;;16.70;38.01;101492.81;4424474;32;19972;-71
2022/03/05 01:54:24;;;;;;;;;;;;;;;16.92;37.68;101496.44;4424260;32;19996;-71
2022/03/05 01:56:50;;;;;;;;;;;;;;;16.83;37.85;101498.41;4424151;32;20377;-71
2022/03/05 01:59:15;;;;;;;;;;;;;;;16.80;37.49;101496.50;4424469;32;19957;-71
2022/03/05 02:01:41;;;;;;;;;;;;;;;16.90;37.41;101496.09;4423261;32;20005;-71
2022/03/05 02:04:06;;;;;;;;;;;;;;;16.37;37.06;101497.22;4424177;32;20000;-71
2022/03/05 02:06:32;;;;;;;;;;;;;;;16.68;36.64;101498.16;4423764;32;20012;-71
2022/03/05 02:08:58;;;;;;;;;;;;;;;16.73;36.21;101500.41;4424833;32;20019;-71
2022/03/05 02:11:24;;;;;;;;;;;;;;;16.81;36.12;101501.72;4424316;32;20295;-71
2022/03/05 02:13:50;;;;;;;;;;;;;;;16.29;36.71;101493.03;4423112;32;20037;-71
2022/03/05 02:16:15;;;;;;;;;;;;;;;16.56;36.60;101498.19;4422040;32;20012;-71
2022/03/05 02:18:44;;;;;;;;;;;;;;;16.66;36.38;101497.81;4423592;32;20002;-71
2022/03/05 02:21:10;;;;;;;;;;;;;;;16.43;36.46;101491.75;4425227;32;20026;-71
2022/03/05 02:23:35;;;;;;;;;;;;;;;16.63;36.69;101493.03;4425692;32;20103;-71
2022/03/05 02:26:03;;;;;;;;;;;;;;;16.18;37.29;101506.03;4423287;32;20017;-71
2022/03/05 02:28:30;;;;;;;;;;;;;;;16.60;36.26;101496.81;4422834;32;20448;-71
2022/03/05 02:30:56;;;;;;;;;;;;;;;16.16;36.74;101505.69;4423409;32;19964;-71
2022/03/05 02:33:24;;;;;;;;;;;;;;;16.67;36.48;101493.72;4423337;32;20073;-71
2022/03/05 02:35:50;;;;;;;;;;;;;;;16.44;36.61;101499.84;4426033;32;19997;-71
2022/03/05 02:38:16;;;;;;;;;;;;;;;16.60;36.41;101504.56;4422463;32;19969;-71
2022/03/05 02:40:43;;;;;;;;;;;;;;;16.06;36.84;101504.03;4423075;32;20206;-71
2022/03/05 02:43:09;;;;;;;;;;;;;;;16.55;36.23;101507.97;4425738;32;20001;-71
2022/03/05 02:45:35;;;;;;;;;;;;;;;16.59;36.47;101508.63;4423999;32;20110;-71
2022/03/05 02:48:02;;;;;;;;;;;;;;;16.49;36.79;101504.16;4425057;32;20033;-71
2022/03/05 02:50:28;;;;;;;;;;;;;;;16.60;36.21;101508.19;4420983;32;20001;-71
2022/03/05 02:52:54;;;;;;;;;;;;;;;16.23;37.09;101503.41;4423125;32;19960;-71
2022/03/05 02:55:20;;;;;;;;;;;;;;;16.42;36.52;101499.50;4423740;32;19993;-71
2022/03/05 02:57:45;;;;;;;;;;;;;;;16.42;36.61;101498.69;4423310;32;20000;-71
2022/03/05 03:00:11;;;;;;;;;;;;;;;16.58;36.57;101502.19;4408596;32;20084;-72
2022/03/05 03:02:40;;;;;;;;;;;;;;;16.43;36.88;101511.63;4417927;32;20010;-71
2022/03/05 03:05:06;;;;;;;;;;;;;;;16.27;37.00;101506.94;4422109;32;20091;-72
2022/03/05 03:07:31;;;;;;;;;;;;;;;16.60;36.59;101513.09;4421964;32;19992;-72
2022/03/05 03:09:58;;;;;;;;;;;;;;;16.61;36.52;101509.78;4421598;32;19954;-72
2022/03/05 03:12:25;;;;;;;;;;;;;;;16.56;36.47;101506.72;4418616;32;20228;-70
2022/03/05 03:14:52;;;;;;;;;;;;;;;16.31;37.35;101510.44;4417321;32;19958;-72
2022/03/05 03:17:19;;;;;;;;;;;;;;;16.28;37.64;101513.38;4418692;32;19968;-72
2022/03/05 03:19:44;;;;;;;;;;;;;;;16.24;37.49;101507.84;4419755;32;20231;-72
2022/03/05 03:22:10;;;;;;;;;;;;;;;15.30;39.17;101506.09;4421593;32;20009;-72
2022/03/05 03:24:35;;;;;;;;;;;;;;;16.19;37.58;101507.63;4422447;32;19968;-72
2022/03/05 03:27:01;;;;;;;;;;;;;;;16.18;37.79;101515.37;4423828;32;20003;-72
2022/03/05 03:29:26;;;;;;;;;;;;;;;16.06;37.63;101509.72;4419421;32;19999;-72
2022/03/05 03:31:52;;;;;;;;;;;;;;;16.11;37.68;101517.66;4421288;32;20008;-72
2022/03/05 03:34:17;;;;;;;;;;;;;;;16.27;37.59;101512.63;4420989;32;19950;-71
2022/03/05 03:36:44;;;;;;;;;;;;;;;15.94;38.31;101520.66;4409646;32;19957;-72
2022/03/05 03:39:10;;;;;;;;;;;;;;;15.93;37.84;101518.25;4422077;32;19991;-72
2022/03/05 03:41:36;;;;;;;;;;;;;;;16.15;37.87;101518.31;4424699;32;20377;-71
2022/03/05 03:44:01;;;;;;;;;;;;;;;16.02;38.00;101513.47;4419835;32;20504;-72
2022/03/05 03:46:27;;;;;;;;;;;;;;;16.12;37.89;101520.03;4421241;32;20005;-72
2022/03/05 03:48:52;;;;;;;;;;;;;;;15.89;38.12;101509.06;4420263;32;20000;-72
2022/03/05 03:51:18;;;;;;;;;;;;;;;15.51;38.70;101508.28;4420200;32;20069;-72
2022/03/05 03:53:43;;;;;;;;;;;;;;;15.50;38.99;101520.91;4422557;32;20025;-72
2022/03/05 03:56:09;;;;;;;;;;;;;;;15.37;38.97;101523.72;4422541;32;19976;-72
2022/03/05 03:58:34;;;;;;;;;;;;;;;15.62;38.65;101518.06;4421677;32;20000;-72
2022/03/05 04:01:00;;;;;;;;;;;;;;;15.65;38.59;101527.72;4420632;32;20395;-72
2022/03/05 04:03:25;;;;;;;;;;;;;;;15.45;38.85;101522.25;4413327;32;19991;-72
2022/03/05 04:05:51;;;;;;;;;;;;;;;15.38;38.97;101524.53;4426939;32;19988;-72
2022/03/05 04:08:47;;;;;;;;;;;;;;;15.16;39.32;101527.19;4428256;32;20402;-71
2022/03/05 04:11:03;;;;;;;;;;;;;;;15.25;38.93;101530.12;4425079;32;20146;-71
2022/03/05 04:13:30;;;;;;;;;;;;;;;15.42;38.89;101536.53;4424251;32;20004;-72
2022/03/05 04:15:56;;;;;;;;;;;;;;;15.42;39.07;101528.03;4422185;32;19968;-72
2022/03/05 04:18:22;;;;;;;;;;;;;;;15.45;38.63;101533.62;4423731;32;20281;-72
2022/03/05 04:20:47;;;;;;;;;;;;;;;15.78;38.23;101534.16;4427195;32;19997;-72
2022/03/05 04:23:13;;;;;;;;;;;;;;;15.56;38.29;101542.56;4424149;32;20003;-72
2022/03/05 04:25:39;;;;;;;;;;;;;;;15.86;37.69;101550.50;4423733;32;20050;-72
2022/03/05 04:28:04;;;;;;;;;;;;;;;15.59;38.22;101549.41;4424418;32;20003;-72
2022/03/05 04:30:30;;;;;;;;;;;;;;;15.57;38.52;101549.03;4423803;32;19957;-71
2022/03/05 04:32:55;;;;;;;;;;;;;;;15.32;38.94;101546.16;4425039;32;19975;-71
2022/03/05 04:35:22;;;;;;;;;;;;;;;15.42;38.56;101550.72;4423065;32;20375;-71
2022/03/05 04:37:48;;;;;;;;;;;;;;;15.43;38.59;101546.63;4423330;32;20335;-71
2022/03/05 04:40:15;;;;;;;;;;;;;;;15.41;38.62;101558.44;4426179;32;19964;-71
2022/03/05 04:42:40;;;;;;;;;;;;;;;15.25;38.90;101554.88;4413995;32;20011;-71
2022/03/05 04:45:08;;;;;;;;;;;;;;;15.53;38.10;101565.37;4424576;32;19953;-72
2022/03/05 04:47:35;;;;;;;;;;;;;;;15.39;38.61;101560.13;4422528;32;20372;-71
2022/03/05 04:50:00;;;;;;;;;;;;;;;15.42;38.10;101565.72;4422183;32;20300;-71
2022/03/05 04:52:27;;;;;;;;;;;;;;;14.94;38.74;101565.13;4423629;32;19995;-71
2022/03/05 04:54:53;;;;;;;;;;;;;;;14.89;39.18;101568.50;4420162;32;20631;-71
2022/03/05 04:57:19;;;;;;;;;;;;;;;15.16;38.65;101572.53;4422676;32;19970;-71
2022/03/05 04:59:44;;;;;;;;;;;;;;;15.36;38.21;101580.88;4420135;32;20004;-71
2022/03/05 05:02:10;;;;;;;;;;;;;;;15.10;38.52;101579.22;4421089;32;19968;-71
2022/03/05 05:04:35;;;;;;;;;;;;;;;15.37;38.13;101580.44;4423531;32;20384;-71
2022/03/05 05:07:01;;;;;;;;;;;;;;;15.39;38.30;101585.66;4425343;32;20371;-71
2022/03/05 05:09:26;;;;;;;;;;;;;;;15.11;38.44;101580.81;4424720;32;19973;-71
2022/03/05 05:11:52;;;;;;;;;;;;;;;15.30;38.12;101588.34;4421001;32;20409;-71
2022/03/05 05:14:17;;;;;;;;;;;;;;;14.99;38.61;101590.88;4419710;32;20031;-71
2022/03/05 05:16:43;;;;;;;;;;;;;;;15.44;37.91;101585.13;4421775;32;19961;-71
2022/03/05 05:19:39;;;;;;;;;;;;;;;15.52;37.61;101595.78;4421489;32;20445;-71
2022/03/05 05:21:58;;;;;;;;;;;;;;;15.48;37.55;101600.78;4421550;32;19993;-71
2022/03/05 05:24:25;;;;;;;;;;;;;;;15.33;37.94;101605.25;4422643;32;20034;-71
2022/03/05 05:26:50;;;;;;;;;;;;;;;15.48;37.57;101606.47;4423495;32;19957;-71
2022/03/05 05:29:16;;;;;;;;;;;;;;;15.42;37.78;101601.78;4422772;32;19996;-71
2022/03/05 05:31:41;;;;;;;;;;;;;;;15.66;36.97;101608.75;4418984;32;21107;-71
2022/03/05 05:34:06;;;;;;;;;;;;;;;15.38;37.75;101609.63;4423249;32;20182;-71
2022/03/05 05:36:32;;;;;;;;;;;;;;;15.46;37.57;101616.66;4417776;32;20323;-71
2022/03/05 05:38:57;;;;;;;;;;;;;;;15.33;37.58;101618.62;4423671;32;19980;-71
2022/03/05 05:41:23;;;;;;;;;;;;;;;15.42;37.53;101622.44;4423469;32;19945;-71
2022/03/05 05:43:48;;;;;;;;;;;;;;;15.27;37.81;101618.41;4422066;32;20076;-71
2022/03/05 05:46:14;;;;;;;;;;;;;;;14.94;37.97;101622.59;4421155;32;19992;-71
2022/03/05 05:48:39;;;;;;;;;;;;;;;15.23;37.47;101628.25;4422516;32;19950;-71
2022/03/05 05:51:05;;;;;;;;;;;;;;;14.99;38.01;101624.91;4420173;32;20388;-71
2022/03/05 05:53:31;;;;;;;;;;;;;;;15.12;38.11;101628.56;4419140;32;19977;-71
2022/03/05 05:55:56;;;;;;;;;;;;;;;15.57;37.40;101642.66;4418887;32;19961;-71
2022/03/05 05:58:22;;;;;;;;;;;;;;;15.52;37.24;101643.22;4420966;32;19989;-71
2022/03/05 06:00:48;;;;;;;;;;;;;;;15.46;37.54;101640.16;4423240;32;19957;-71
2022/03/05 06:03:13;;;;;;;;;;;;;;;15.42;37.60;101644.34;4422649;32;20343;-71
2022/03/05 06:05:39;;;;;;;;;;;;;;;15.50;37.27;101645.72;4422780;32;20386;-71
2022/03/05 06:08:05;;;;;;;;;;;;;;;15.24;38.00;101653.34;4422956;32;19950;-71
2022/03/05 06:10:31;;;;;;;;;;;;;;;15.29;37.68;101649.16;4420171;32;20339;-71
2022/03/05 06:12:56;;;;;;;;;;;;;;;15.11;37.33;101654.53;4422046;32;20013;-71
2022/03/05 06:15:22;;;;;;;;;;;;;;;15.26;37.54;101653.69;4417901;32;20314;-71
2022/03/05 06:17:48;;;;;;;;;;;;;;;15.49;37.13;101650.59;4421217;32;20299;-71
2022/03/05 06:20:14;;;;;;;;;;;;;;;15.34;37.22;101652.22;4421044;32;19953;-71
2022/03/05 06:22:41;;;;;;;;;;;;;;;15.49;36.78;101667.63;4421687;32;19961;-71
2022/03/05 06:25:07;;;;;;;;;;;;;;;15.35;37.11;101668.03;4421547;32;20327;-71
2022/03/05 06:27:34;;;;;;;;;;;;;;;15.20;37.52;101666.03;4421258;32;20039;-71
2022/03/05 06:29:59;;;;;;;;;;;;;;;15.44;36.93;101664.56;4421967;32;20400;-71
2022/03/05 06:32:25;;;;;;;;;;;;;;;15.44;37.22;101665.31;4420183;32;19961;-71
2022/03/05 06:34:54;;;;;;;;;;;;;;;14.65;38.23;101672.78;4422917;32;20472;-71
2022/03/05 06:37:20;;;;;;;;;;;;;;;15.35;37.25;101665.19;4420449;32;20293;-71
2022/03/05 06:39:46;;;;;;;;;;;;;;;15.61;36.75;101663.22;4422276;32;19953;-71
2022/03/05 06:42:12;;;;;;;;;;;;;;;15.09;37.60;101669.16;4421853;32;20008;-71
2022/03/05 06:44:37;;;;;;;;;;;;;;;14.67;38.10;101675.19;4419589;32;19971;-71
2022/03/05 06:47:03;;;;;;;;;;;;;;;15.02;37.60;101668.56;4420443;32;20034;-71
2022/03/05 06:49:29;;;;;;;;;;;;;;;15.09;37.35;101671.19;4419786;32;20432;-71
2022/03/05 06:51:54;;;;;;;;;;;;;;;14.89;38.18;101671.34;4423868;32;20005;-71
2022/03/05 06:54:20;;;;;;;;;;;;;;;15.08;37.56;101675.28;4420109;32;19953;-71
2022/03/05 06:56:46;;;;;;;;;;;;;;;15.24;37.33;101676.03;4419786;32;19960;-71
2022/03/05 06:59:11;;;;;;;;;;;;;;;15.46;36.91;101679.88;4419478;32;20007;-71
2022/03/05 07:01:37;;;;;;;;;;;;;;;15.52;37.01;101688.59;4421932;32;20275;-71
2022/03/05 07:04:03;;;;;;;;;;;;;;;15.32;37.11;101685.13;4422205;32;19989;-71
2022/03/05 07:06:28;;;;;;;;;;;;;;;15.23;37.30;101690.66;4422880;32;19985;-70
2022/03/05 07:08:54;;;;;;;;;;;;;;;15.46;37.11;101685.53;4421515;32;20177;-71
2022/03/05 07:11:19;;;;;;;;;;;;;;;15.44;37.13;101688.03;4420798;32;20283;-71
2022/03/05 07:13:44;;;;;;;;;;;;;;;15.33;37.08;101695.22;4418644;32;19961;-71
2022/03/05 07:16:10;;;;;;;;;;;;;;;15.24;37.04;101700.75;4419559;32;20299;-70
2022/03/05 07:18:36;;;;;;;;;;;;;;;15.11;37.51;101702.72;4420684;32;20487;-70
2022/03/05 07:21:02;;;;;;;;;;;;;;;15.53;36.87;101699.50;4419936;32;20044;-71
2022/03/05 07:23:27;;;;;;;;;;;;;;;15.05;37.54;101701.69;4419128;32;20001;-71
2022/03/05 07:25:53;;;;;;;;;;;;;;;15.23;37.06;101705.63;4417647;32;19997;-71
2022/03/05 07:28:20;;;;;;;;;;;;;;;15.00;38.06;101705.06;4421627;32;19957;-71
2022/03/05 07:30:45;;;;;;;;;;;;;;;15.28;37.36;101710.75;4420914;32;20413;-70
2022/03/05 07:33:11;;;;;;;;;;;;;;;15.26;37.25;101713.25;4418789;32;20410;-71
2022/03/05 07:35:36;;;;;;;;;;;;;;;15.36;37.30;101725.53;4420193;32;19958;-71
2022/03/05 07:38:02;;;;;;;;;;;;;;;14.67;38.28;101724.13;4425941;32;20015;-70
2022/03/05 07:40:27;;;;;;;;;;;;;;;15.27;37.29;101729.00;4424002;32;20021;-71
2022/03/05 07:42:53;;;;;;;;;;;;;;;15.30;37.51;101738.66;4425585;32;19960;-71
2022/03/05 07:45:19;;;;;;;;;;;;;;;15.48;36.92;101722.78;4421569;32;19965;-71
2022/03/05 07:47:45;;;;;;;;;;;;;;;14.95;37.57;101733.94;4423462;32;19985;-71
2022/03/05 07:50:11;;;;;;;;;;;;;;;15.64;36.78;101736.09;4424906;32;20335;-71
2022/03/05 07:52:36;;;;;;;;;;;;;;;15.53;36.99;101738.44;4423533;32;19972;-71
2022/03/05 07:55:03;;;;;;;;;;;;;;;15.61;36.69;101751.97;4424454;32;20064;-70
2022/03/05 07:57:28;;;;;;;;;;;;;;;15.46;36.52;101744.31;4424260;32;19988;-70
2022/03/05 07:59:54;;;;;;;;;;;;;;;15.46;37.00;101749.97;4421835;32;20385;-71
2022/03/05 08:02:20;;;;;;;;;;;;;;;16.06;36.34;101749.03;4424264;32;20378;-71
2022/03/05 08:04:47;;;;;;;;;;;;;;;15.99;35.76;101747.19;4424305;32;19964;-71
2022/03/05 08:07:13;;;;;;;;;;;;;;;15.68;36.17;101751.00;4425828;32;20413;-71
2022/03/05 08:09:40;;;;;;;;;;;;;;;16.02;35.67;101742.66;4422142;32;19965;-70
2022/03/05 08:12:06;;;;;;;;;;;;;;;16.28;35.15;101752.78;4422586;32;19962;-70
2022/03/05 08:14:31;;;;;;;;;;;;;;;16.26;35.28;101765.87;4421254;32;19972;-70
2022/03/05 08:16:58;;;;;;;;;;;;;;;16.53;34.91;101766.22;4422365;32;20308;-71
2022/03/05 08:19:23;;;;;;;;;;;;;;;16.42;35.18;101772.25;4421387;32;20027;-71
2022/03/05 08:21:49;;;;;;;;;;;;;;;16.39;35.00;101773.16;4423396;32;20378;-71
2022/03/05 08:24:14;;;;;;;;;;;;;;;16.70;34.36;101768.53;4397891;32;20340;-71
2022/03/05 08:26:40;;;;;;;;;;;;;;;16.81;34.56;101766.09;4422394;32;19988;-71
2022/03/05 08:29:05;;;;;;;;;;;;;;;16.25;34.84;101772.78;4422284;32;19968;-71
2022/03/05 08:31:31;;;;;;;;;;;;;;;16.63;34.85;101776.47;4422404;32;19993;-71
2022/03/05 08:33:58;;;;;;;;;;;;;;;16.50;34.40;101773.63;4423219;32;20045;-71
2022/03/05 08:36:24;;;;;;;;;;;;;;;16.81;34.26;101771.00;4425943;32;20009;-71
2022/03/05 08:38:50;;;;;;;;;;;;;;;17.12;34.02;101769.13;4424477;32;20334;-71
2022/03/05 08:41:16;;;;;;;;;;;;;;;17.12;33.71;101783.34;4422132;32;20013;-71
2022/03/05 08:43:42;;;;;;;;;;;;;;;16.82;34.32;101772.59;4422264;32;20000;-71
2022/03/05 08:46:09;;;;;;;;;;;;;;;16.63;34.47;101780.09;4423551;32;20005;-71
2022/03/05 08:48:35;;;;;;;;;;;;;;;17.19;34.17;101777.41;4423562;32;19989;-71
2022/03/05 08:51:00;;;;;;;;;;;;;;;17.39;34.03;101775.87;4422906;32;20066;-71
2022/03/05 08:53:26;;;;;;;;;;;;;;;16.77;34.59;101779.66;4422947;32;20013;-71
2022/03/05 08:55:52;;;;;;;;;;;;;;;16.94;34.31;101781.09;4420521;32;19990;-71
2022/03/05 08:58:17;;;;;;;;;;;;;;;17.33;33.84;101785.44;4425467;32;19953;-71
2022/03/05 09:00:43;;;;;;;;;;;;;;;17.21;33.99;101787.06;4424203;32;20044;-71
2022/03/05 09:03:08;;;;;;;;;;;;;;;17.28;33.29;101783.97;4423773;32;19966;-70
2022/03/05 09:05:34;;;;;;;;;;;;;;;17.48;33.67;101793.06;4423089;32;20035;-70
2022/03/05 09:07:59;;;;;;;;;;;;;;;17.40;33.34;101794.53;4424382;32;20402;-70
2022/03/05 09:10:26;;;;;;;;;;;;;;;17.73;33.10;101787.25;4421864;32;20005;-70
2022/03/05 09:12:51;;;;;;;;;;;;;;;17.40;33.30;101805.91;4423032;32;20427;-70
2022/03/05 09:15:17;;;;;;;;;;;;;;;17.11;33.81;101802.47;4418677;32;20046;-71
2022/03/05 09:17:42;;;;;;;;;;;;;;;17.07;34.00;101810.34;4422419;32;20502;-72
2022/03/05 09:20:09;;;;;;;;;;;;;;;16.73;34.39;101796.03;4417887;32;19997;-72
2022/03/05 09:22:34;;;;;;;;;;;;;;;16.96;34.03;101806.22;4423623;32;19989;-70
2022/03/05 09:25:00;;;;;;;;;;;;;;;16.92;34.08;101817.75;4421877;32;19985;-71
2022/03/05 09:27:26;;;;;;;;;;;;;;;17.31;33.52;101814.34;4422629;32;20002;-71
2022/03/05 09:29:52;;;;;;;;;;;;;;;17.47;33.02;101808.56;4421588;32;20044;-70
2022/03/05 09:32:17;;;;;;;;;;;;;;;17.58;33.21;101819.56;4423270;32;19971;-70
2022/03/05 09:34:42;;;;;;;;;;;;;;;17.55;33.39;101817.63;4423127;32;20001;-70
2022/03/05 09:37:08;;;;;;;;;;;;;;;17.64;33.10;101827.03;4419224;32;19961;-70
2022/03/05 09:39:35;;;;;;;;;;;;;;;17.88;33.05;101819.66;4421216;32;20157;-70
2022/03/05 09:42:02;;;;;;;;;;;;;;;17.85;32.63;101825.47;4422802;32;20217;-70
2022/03/05 09:44:27;;;;;;;;;;;;;;;17.97;32.25;101826.69;4422304;32;20023;-70
2022/03/05 09:46:53;;;;;;;;;;;;;;;18.02;32.19;101828.91;4420197;32;20004;-70
2022/03/05 09:49:19;;;;;;;;;;;;;;;17.54;33.15;101831.06;4420737;32;20025;-70
2022/03/05 09:51:45;;;;;;;;;;;;;;;17.21;33.65;101826.91;4422341;32;20107;-70
2022/03/05 09:54:10;;;;;;;;;;;;;;;17.34;33.48;101821.19;4420452;32;20335;-70
2022/03/05 09:56:36;;;;;;;;;;;;;;;17.76;33.25;101831.88;4419512;32;20347;-70
2022/03/05 09:59:02;;;;;;;;;;;;;;;17.81;33.10;101833.34;4423118;32;20419;-70
2022/03/05 10:01:29;;;;;;;;;;;;;;;17.50;33.31;101830.41;4422392;32;19984;-70
2022/03/05 10:03:56;;;;;;;;;;;;;;;18.03;32.88;101833.34;4420272;32;20287;-70
2022/03/05 10:06:23;;;;;;;;;;;;;;;17.48;33.64;101841.44;4422364;32;20160;-70
2022/03/05 10:08:52;;;;;;;;;;;;;;;17.81;32.87;101844.75;4422903;32;19961;-70
2022/03/05 10:11:18;;;;;;;;;;;;;;;18.06;32.77;101846.66;4422468;32;19949;-70
2022/03/05 10:13:44;;;;;;;;;;;;;;;18.20;32.34;101844.09;4421227;32;20361;-70
2022/03/05 10:16:30;;;;;;;;;;;;;;;18.43;32.08;101846.47;4416032;32;20012;-71
2022/03/05 10:18:56;;;;;;;;;;;;;;;17.50;33.36;101838.13;4420690;32;19953;-71
2022/03/05 10:21:29;;;;;;;;;;;;;;;17.57;32.52;101840.72;4423115;32;19957;-71
2022/03/05 10:24:11;;;;;;;;;;;;;;;18.34;32.16;101854.13;4420264;32;19994;-71
2022/03/05 10:26:52;;;;;;;;;;;;;;;18.24;31.88;101856.16;4420995;32;20642;-71
2022/03/05 10:29:19;;;;;;;;;;;;;;;18.49;32.03;101850.31;4421387;32;19957;-72
2022/03/05 10:32:04;;;;;;;;;;;;;;;17.91;31.98;101851.31;4421051;32;20012;-71
2022/03/05 10:34:50;;;;;;;;;;;;;;;17.85;31.87;101840.50;4420748;32;19957;-71
2022/03/05 10:37:17;;;;;;;;;;;;;;;17.31;32.92;101856.25;4409471;32;20255;-71
2022/03/05 10:39:43;;;;;;;;;;;;;;;18.12;31.39;101853.34;4422020;32;19992;-71
2022/03/05 10:45:00;;;;;;;;;;;;;;;19.31;29.38;101865.72;3951164;32;15850621;-71
2022/03/05 10:47:35;;;;;;;;;;;;;;;19.31;29.38;101865.72;4444246;32;19976;-71
2022/03/05 10:50:04;;;;;;;;;;;;;;;19.08;29.96;101875.62;4440320;32;19992;-71
2022/03/05 10:52:42;;;;;;;;;;;;;;;18.74;30.08;101861.53;4439745;32;19968;-71
2022/03/05 10:55:24;;;;;;;;;;;;;;;17.98;30.57;101859.59;4439487;32;19959;-71
2022/03/05 10:58:17;;;;;;;;;;;;;;;18.55;30.68;101873.28;4440582;32;20642;-71
2022/03/05 11:00:45;;;;;;;;;;;;;;;18.76;30.32;101870.41;4438834;32;19976;-71
2022/03/05 11:03:10;;;;;;;;;;;;;;;19.15;30.10;101875.31;4440910;32;19969;-71
2022/03/05 11:05:37;;;;;;;;;;;;;;;18.00;31.46;101866.41;4441118;32;20508;-71
2022/03/05 11:08:04;;;;;;;;;;;;;;;18.52;30.50;101889.28;4441997;32;19975;-71
2022/03/05 11:10:29;;;;;;;;;;;;;;;18.37;30.87;101882.53;4441973;32;20357;-71
2022/03/05 11:12:59;;;;;;;;;;;;;;;18.62;30.28;101887.31;4446020;32;20023;-71
2022/03/05 11:15:25;;;;;;;;;;;;;;;18.62;30.60;101893.00;4440930;32;19956;-71
2022/03/05 11:17:51;;;;;;;;;;;;;;;19.31;29.53;101891.41;4437639;32;19993;-71
2022/03/05 11:20:18;;;;;;;;;;;;;;;18.69;29.37;101892.72;4439921;32;20104;-71
2022/03/05 11:22:46;;;;;;;;;;;;;;;19.01;29.61;101886.53;4439824;32;19965;-71
2022/03/05 11:25:14;;;;;;;;;;;;;;;19.10;29.35;101883.72;4439811;32;19960;-71
2022/03/05 11:27:50;;;;;;;;;;;;;;;19.27;29.25;101885.84;4438956;32;20003;-71
2022/03/05 11:30:17;;;;;;;;;;;;;;;19.93;28.69;101892.78;4438866;32;19972;-71
2022/03/05 11:32:43;;;;;;;;;;;;;;;19.64;28.74;101883.88;4442629;32;19989;-71
2022/03/05 11:35:18;;;;;;;;;;;;;;;19.44;28.76;101886.38;4442311;32;20009;-71
2022/03/05 11:37:44;;;;;;;;;;;;;;;18.41;29.67;101886.03;4438878;32;20007;-71
2022/03/05 11:40:29;;;;;;;;;;;;;;;19.04;29.50;101894.16;4442417;32;20409;-71
2022/03/05 11:43:13;;;;;;;;;;;;;;;19.04;29.67;101891.28;4442641;32;20335;-71
2022/03/05 11:45:46;;;;;;;;;;;;;;;18.99;29.99;101894.78;4438395;32;19980;-71
2022/03/05 11:48:27;;;;;;;;;;;;;;;18.67;29.72;101895.22;4438184;32;19994;-71
2022/03/05 11:50:55;;;;;;;;;;;;;;;18.52;30.11;101894.19;4441002;32;19976;-70
2022/03/05 11:53:21;;;;;;;;;;;;;;;18.44;29.80;101899.38;4444485;32;19949;-70
2022/03/05 11:55:47;;;;;;;;;;;;;;;18.95;29.28;101897.75;4430376;32;20304;-70
2022/03/05 12:00:51;;;;;;;;;;;;;;;19.50;28.61;101896.72;3952153;32;15724362;-71
2022/03/05 12:03:38;;;;;;;;;;;;;;;19.51;28.52;101894.63;4435570;32;20344;-71
2022/03/05 12:06:04;;;;;;;;;;;;;;;20.11;28.13;101894.84;4433234;32;20335;-71
2022/03/05 12:11:22;;;;;;;;;;;;;;;21.13;26.91;101894.50;3960294;31;15716219;-71
2022/03/05 12:16:28;;;;;;;;;;;;;;;20.53;27.44;101892.94;3949610;32;15724495;-72
2022/03/05 12:18:56;;;;;;;;;;;;;;;20.53;27.44;101892.94;4426509;32;20436;-72
2022/03/05 12:21:30;;;;;;;;;;;;;;;21.63;26.06;101907.91;4426448;32;20252;-72
2022/03/05 12:24:07;;;;;;;;;;;;;;;19.25;28.67;101891.22;4428013;32;20017;-72
2022/03/05 12:26:34;;;;;;;;;;;;;;;19.24;28.18;101900.25;4428601;32;20419;-72
2022/03/05 12:29:00;;;;;;;;;;;;;;;20.31;27.29;101887.37;4426932;32;20350;-72
2022/03/05 12:31:26;;;;;;;;;;;;;;;20.90;26.31;101898.03;4428505;32;19950;-71
2022/03/05 12:33:51;;;;;;;;;;;;;;;21.21;26.12;101892.88;4430599;32;19953;-71
2022/03/05 12:36:18;;;;;;;;;;;;;;;21.27;25.81;101899.50;4427937;32;19996;-72
2022/03/05 12:38:52;;;;;;;;;;;;;;;19.96;27.58;101899.59;4425062;32;20067;-71
2022/03/05 12:41:18;;;;;;;;;;;;;;;20.19;26.98;101891.22;4413442;32;19979;-71
2022/03/05 12:43:44;;;;;;;;;;;;;;;20.37;27.36;101890.41;4417832;32;19976;-72